sensor_id;sensor_type;location;lat;lon;timestamp;temperature;humidity
728;DHT22;347;48.780;9.158;2023-08-17T00:02:14;22.40;48.00
728;DHT22;347;48.780;9.158;2023-08-17T00:04:40;22.40;48.20
728;DHT22;347;48.780;9.158;2023-08-17T00:07:06;22.40;48.20
728;DHT22;347;48.780;9.158;2023-08-17T00:09:32;22.40;48.20
728;DHT22;347;48.780;9.158;2023-08-17T00:11:58;22.40;48.20
728;DHT22;347;48.780;9.158;2023-08-17T00:14:23;22.40;48.10
728;DHT22;347;48.780;9.158;2023-08-17T00:16:50;22.40;48.50
728;DHT22;347;48.780;9.158;2023-08-17T00:19:16;22.30;48.70
728;DHT22;347;48.780;9.158;2023-08-17T00:21:41;22.20;49.40
728;DHT22;347;48.780;9.158;2023-08-17T00:24:07;22.10;50.30
728;DHT22;347;48.780;9.158;2023-08-17T00:26:33;22.00;50.50
728;DHT22;347;48.780;9.158;2023-08-17T00:28:58;22.10;50.30
728;DHT22;347;48.780;9.158;2023-08-17T00:31:24;22.10;50.10
728;DHT22;347;48.780;9.158;2023-08-17T00:33:49;22.10;49.80
728;DHT22;347;48.780;9.158;2023-08-17T00:36:15;22.10;51.10
728;DHT22;347;48.780;9.158;2023-08-17T00:38:41;22.00;51.10
728;DHT22;347;48.780;9.158;2023-08-17T00:41:06;22.00;50.60
728;DHT22;347;48.780;9.158;2023-08-17T00:43:32;22.10;50.70
728;DHT22;347;48.780;9.158;2023-08-17T00:45:58;22.20;50.20
728;DHT22;347;48.780;9.158;2023-08-17T00:48:24;22.20;49.70
728;DHT22;347;48.780;9.158;2023-08-17T00:50:50;22.20;49.50
728;DHT22;347;48.780;9.158;2023-08-17T00:53:18;22.20;49.20
728;DHT22;347;48.780;9.158;2023-08-17T00:55:44;22.20;49.00
728;DHT22;347;48.780;9.158;2023-08-17T00:58:10;22.20;48.60
728;DHT22;347;48.780;9.158;2023-08-17T01:00:35;22.30;49.00
728;DHT22;347;48.780;9.158;2023-08-17T01:03:01;22.20;49.00
728;DHT22;347;48.780;9.158;2023-08-17T01:05:27;22.30;48.70
728;DHT22;347;48.780;9.158;2023-08-17T01:07:52;22.30;48.60
728;DHT22;347;48.780;9.158;2023-08-17T01:10:18;22.30;48.60
728;DHT22;347;48.780;9.158;2023-08-17T01:12:52;22.20;48.60
728;DHT22;347;48.780;9.158;2023-08-17T01:15:49;22.30;48.40
728;DHT22;347;48.780;9.158;2023-08-17T01:18:23;22.20;48.50
728;DHT22;347;48.780;9.158;2023-08-17T01:20:53;22.20;48.70
728;DHT22;347;48.780;9.158;2023-08-17T01:23:19;22.30;49.10
728;DHT22;347;48.780;9.158;2023-08-17T01:25:44;22.30;49.10
728;DHT22;347;48.780;9.158;2023-08-17T01:28:10;22.20;48.80
728;DHT22;347;48.780;9.158;2023-08-17T01:31:05;22.30;48.60
728;DHT22;347;48.780;9.158;2023-08-17T01:33:58;22.30;48.40
728;DHT22;347;48.780;9.158;2023-08-17T01:36:31;22.20;48.20
728;DHT22;347;48.780;9.158;2023-08-17T01:38:58;22.20;48.20
728;DHT22;347;48.780;9.158;2023-08-17T01:41:26;22.20;48.40
728;DHT22;347;48.780;9.158;2023-08-17T01:43:52;22.20;48.50
728;DHT22;347;48.780;9.158;2023-08-17T01:46:19;22.20;48.30
728;DHT22;347;48.780;9.158;2023-08-17T01:48:45;22.20;48.20
728;DHT22;347;48.780;9.158;2023-08-17T01:51:16;22.20;48.30
728;DHT22;347;48.780;9.158;2023-08-17T01:53:42;22.20;48.50
728;DHT22;347;48.780;9.158;2023-08-17T01:56:07;22.20;48.60
728;DHT22;347;48.780;9.158;2023-08-17T01:58:33;22.20;49.40
728;DHT22;347;48.780;9.158;2023-08-17T02:00:58;22.20;49.00
728;DHT22;347;48.780;9.158;2023-08-17T02:03:24;22.20;49.00
728;DHT22;347;48.780;9.158;2023-08-17T02:05:50;22.20;48.80
728;DHT22;347;48.780;9.158;2023-08-17T02:08:15;22.20;48.90
728;DHT22;347;48.780;9.158;2023-08-17T02:10:41;22.20;49.40
728;DHT22;347;48.780;9.158;2023-08-17T02:13:06;22.20;49.60
728;DHT22;347;48.780;9.158;2023-08-17T02:15:32;22.20;50.00
728;DHT22;347;48.780;9.158;2023-08-17T02:18:01;22.10;50.20
728;DHT22;347;48.780;9.158;2023-08-17T02:20:27;22.10;50.40
728;DHT22;347;48.780;9.158;2023-08-17T02:22:52;22.10;50.30
728;DHT22;347;48.780;9.158;2023-08-17T02:25:18;22.10;50.40
728;DHT22;347;48.780;9.158;2023-08-17T02:27:43;22.10;51.20
728;DHT22;347;48.780;9.158;2023-08-17T02:30:09;22.10;50.40
728;DHT22;347;48.780;9.158;2023-08-17T02:32:35;22.10;50.40
728;DHT22;347;48.780;9.158;2023-08-17T02:35:01;22.20;50.60
728;DHT22;347;48.780;9.158;2023-08-17T02:37:27;22.10;50.40
728;DHT22;347;48.780;9.158;2023-08-17T02:39:52;22.20;50.30
728;DHT22;347;48.780;9.158;2023-08-17T02:42:18;22.10;50.00
728;DHT22;347;48.780;9.158;2023-08-17T02:44:43;22.10;50.40
728;DHT22;347;48.780;9.158;2023-08-17T02:47:09;22.10;50.50
728;DHT22;347;48.780;9.158;2023-08-17T02:49:35;22.10;50.20
728;DHT22;347;48.780;9.158;2023-08-17T02:52:01;22.10;50.00
728;DHT22;347;48.780;9.158;2023-08-17T02:54:26;22.10;50.00
728;DHT22;347;48.780;9.158;2023-08-17T02:56:52;22.10;50.10
728;DHT22;347;48.780;9.158;2023-08-17T02:59:17;22.10;50.10
728;DHT22;347;48.780;9.158;2023-08-17T03:01:45;22.10;50.40
728;DHT22;347;48.780;9.158;2023-08-17T03:04:10;22.10;50.20
728;DHT22;347;48.780;9.158;2023-08-17T03:06:36;22.10;50.40
728;DHT22;347;48.780;9.158;2023-08-17T03:09:02;22.10;50.40
728;DHT22;347;48.780;9.158;2023-08-17T03:11:27;22.10;50.50
728;DHT22;347;48.780;9.158;2023-08-17T03:13:53;22.10;50.30
728;DHT22;347;48.780;9.158;2023-08-17T03:16:25;22.10;50.30
728;DHT22;347;48.780;9.158;2023-08-17T03:18:51;22.10;50.30
728;DHT22;347;48.780;9.158;2023-08-17T03:21:17;22.10;50.30
728;DHT22;347;48.780;9.158;2023-08-17T03:23:44;22.10;50.20
728;DHT22;347;48.780;9.158;2023-08-17T03:26:09;21.90;51.70
728;DHT22;347;48.780;9.158;2023-08-17T03:28:35;21.80;52.00
728;DHT22;347;48.780;9.158;2023-08-17T03:31:01;21.70;52.60
728;DHT22;347;48.780;9.158;2023-08-17T03:33:27;21.70;52.90
728;DHT22;347;48.780;9.158;2023-08-17T03:35:53;21.60;53.20
728;DHT22;347;48.780;9.158;2023-08-17T03:38:18;21.50;53.60
728;DHT22;347;48.780;9.158;2023-08-17T03:40:44;21.40;53.90
728;DHT22;347;48.780;9.158;2023-08-17T03:43:10;21.40;54.30
728;DHT22;347;48.780;9.158;2023-08-17T03:45:36;21.30;54.80
728;DHT22;347;48.780;9.158;2023-08-17T03:48:01;21.20;55.50
728;DHT22;347;48.780;9.158;2023-08-17T03:50:28;21.20;55.60
728;DHT22;347;48.780;9.158;2023-08-17T03:52:54;21.20;55.20
728;DHT22;347;48.780;9.158;2023-08-17T03:55:19;21.30;55.40
728;DHT22;347;48.780;9.158;2023-08-17T03:57:45;21.20;54.80
728;DHT22;347;48.780;9.158;2023-08-17T04:00:11;21.20;55.00
728;DHT22;347;48.780;9.158;2023-08-17T04:02:37;21.20;55.40
728;DHT22;347;48.780;9.158;2023-08-17T04:05:03;21.20;55.30
728;DHT22;347;48.780;9.158;2023-08-17T04:07:28;21.30;55.10
728;DHT22;347;48.780;9.158;2023-08-17T04:09:54;21.30;54.90
728;DHT22;347;48.780;9.158;2023-08-17T04:12:20;21.30;55.10
728;DHT22;347;48.780;9.158;2023-08-17T04:14:45;21.30;55.40
728;DHT22;347;48.780;9.158;2023-08-17T04:17:11;21.30;55.40
728;DHT22;347;48.780;9.158;2023-08-17T04:19:37;21.20;55.60
728;DHT22;347;48.780;9.158;2023-08-17T04:22:03;21.20;55.90
728;DHT22;347;48.780;9.158;2023-08-17T04:24:28;21.20;55.60
728;DHT22;347;48.780;9.158;2023-08-17T04:26:54;21.20;55.40
728;DHT22;347;48.780;9.158;2023-08-17T04:29:20;21.20;55.50
728;DHT22;347;48.780;9.158;2023-08-17T04:31:46;21.30;55.90
728;DHT22;347;48.780;9.158;2023-08-17T04:34:11;21.30;54.80
728;DHT22;347;48.780;9.158;2023-08-17T04:36:37;21.30;54.80
728;DHT22;347;48.780;9.158;2023-08-17T04:39:03;21.20;54.70
728;DHT22;347;48.780;9.158;2023-08-17T04:41:30;21.20;55.30
728;DHT22;347;48.780;9.158;2023-08-17T04:43:56;21.20;55.60
728;DHT22;347;48.780;9.158;2023-08-17T04:46:21;21.30;55.00
728;DHT22;347;48.780;9.158;2023-08-17T04:48:47;21.40;54.30
728;DHT22;347;48.780;9.158;2023-08-17T04:51:13;21.50;53.50
728;DHT22;347;48.780;9.158;2023-08-17T04:53:40;21.60;52.80
728;DHT22;347;48.780;9.158;2023-08-17T04:56:05;21.70;52.00
728;DHT22;347;48.780;9.158;2023-08-17T04:58:31;21.70;51.90
728;DHT22;347;48.780;9.158;2023-08-17T05:00:58;21.70;51.90
728;DHT22;347;48.780;9.158;2023-08-17T05:03:24;21.60;51.80
728;DHT22;347;48.780;9.158;2023-08-17T05:05:51;21.60;52.70
728;DHT22;347;48.780;9.158;2023-08-17T05:08:17;21.60;52.50
728;DHT22;347;48.780;9.158;2023-08-17T05:10:42;21.70;51.90
728;DHT22;347;48.780;9.158;2023-08-17T05:13:08;21.70;51.90
728;DHT22;347;48.780;9.158;2023-08-17T05:15:33;21.70;51.90
728;DHT22;347;48.780;9.158;2023-08-17T05:17:59;21.60;51.90
728;DHT22;347;48.780;9.158;2023-08-17T05:20:25;21.70;51.90
728;DHT22;347;48.780;9.158;2023-08-17T05:22:51;21.70;51.90
728;DHT22;347;48.780;9.158;2023-08-17T05:25:16;21.70;51.50
728;DHT22;347;48.780;9.158;2023-08-17T05:27:42;21.70;51.90
728;DHT22;347;48.780;9.158;2023-08-17T05:30:08;21.70;51.90
728;DHT22;347;48.780;9.158;2023-08-17T05:32:33;21.70;51.90
728;DHT22;347;48.780;9.158;2023-08-17T05:34:59;21.80;51.70
728;DHT22;347;48.780;9.158;2023-08-17T05:37:25;21.90;51.50
728;DHT22;347;48.780;9.158;2023-08-17T05:39:50;21.90;50.70
728;DHT22;347;48.780;9.158;2023-08-17T05:42:16;21.70;51.50
728;DHT22;347;48.780;9.158;2023-08-17T05:44:41;21.70;51.90
728;DHT22;347;48.780;9.158;2023-08-17T05:47:07;21.50;52.40
728;DHT22;347;48.780;9.158;2023-08-17T05:49:33;21.50;53.20
728;DHT22;347;48.780;9.158;2023-08-17T05:51:58;21.40;53.70
728;DHT22;347;48.780;9.158;2023-08-17T05:54:25;21.30;54.20
728;DHT22;347;48.780;9.158;2023-08-17T05:56:50;21.40;54.80
728;DHT22;347;48.780;9.158;2023-08-17T05:59:16;21.30;54.90
728;DHT22;347;48.780;9.158;2023-08-17T06:01:41;21.30;54.90
728;DHT22;347;48.780;9.158;2023-08-17T06:04:07;21.40;54.80
728;DHT22;347;48.780;9.158;2023-08-17T06:06:33;21.40;54.80
728;DHT22;347;48.780;9.158;2023-08-17T06:08:59;21.40;54.80
728;DHT22;347;48.780;9.158;2023-08-17T06:11:24;21.30;54.80
728;DHT22;347;48.780;9.158;2023-08-17T06:13:50;21.40;54.80
728;DHT22;347;48.780;9.158;2023-08-17T06:16:16;21.40;54.40
728;DHT22;347;48.780;9.158;2023-08-17T06:18:41;21.50;54.40
728;DHT22;347;48.780;9.158;2023-08-17T06:21:08;21.60;53.90
728;DHT22;347;48.780;9.158;2023-08-17T06:23:33;21.50;53.20
728;DHT22;347;48.780;9.158;2023-08-17T06:25:59;21.50;53.80
728;DHT22;347;48.780;9.158;2023-08-17T06:28:26;21.50;54.20
728;DHT22;347;48.780;9.158;2023-08-17T06:30:53;21.60;54.30
728;DHT22;347;48.780;9.158;2023-08-17T06:33:19;21.60;53.50
728;DHT22;347;48.780;9.158;2023-08-17T06:35:45;21.70;53.40
728;DHT22;347;48.780;9.158;2023-08-17T06:38:10;21.60;52.30
728;DHT22;347;48.780;9.158;2023-08-17T06:40:36;21.60;52.70
728;DHT22;347;48.780;9.158;2023-08-17T06:43:01;21.60;52.60
728;DHT22;347;48.780;9.158;2023-08-17T06:45:27;21.70;52.90
728;DHT22;347;48.780;9.158;2023-08-17T06:47:53;21.80;52.30
728;DHT22;347;48.780;9.158;2023-08-17T06:50:18;21.90;52.10
728;DHT22;347;48.780;9.158;2023-08-17T06:52:44;22.00;51.00
728;DHT22;347;48.780;9.158;2023-08-17T06:55:10;22.00;50.50
728;DHT22;347;48.780;9.158;2023-08-17T06:57:36;22.10;50.00
728;DHT22;347;48.780;9.158;2023-08-17T07:00:02;22.10;49.50
728;DHT22;347;48.780;9.158;2023-08-17T07:02:30;22.10;49.20
728;DHT22;347;48.780;9.158;2023-08-17T07:04:56;22.20;49.10
728;DHT22;347;48.780;9.158;2023-08-17T07:07:21;22.20;49.30
728;DHT22;347;48.780;9.158;2023-08-17T07:09:47;22.20;48.40
728;DHT22;347;48.780;9.158;2023-08-17T07:12:13;22.20;48.30
728;DHT22;347;48.780;9.158;2023-08-17T07:14:38;22.20;48.40
728;DHT22;347;48.780;9.158;2023-08-17T07:17:04;22.30;48.50
728;DHT22;347;48.780;9.158;2023-08-17T07:19:29;22.30;48.50
728;DHT22;347;48.780;9.158;2023-08-17T07:21:55;22.40;48.00
728;DHT22;347;48.780;9.158;2023-08-17T07:24:21;22.40;47.80
728;DHT22;347;48.780;9.158;2023-08-17T07:26:46;22.50;47.80
728;DHT22;347;48.780;9.158;2023-08-17T07:29:12;22.50;47.70
728;DHT22;347;48.780;9.158;2023-08-17T07:31:40;22.50;47.20
728;DHT22;347;48.780;9.158;2023-08-17T07:34:06;22.50;47.00
728;DHT22;347;48.780;9.158;2023-08-17T07:36:33;22.50;46.80
728;DHT22;347;48.780;9.158;2023-08-17T07:38:59;22.50;46.70
728;DHT22;347;48.780;9.158;2023-08-17T07:41:25;22.50;47.10
728;DHT22;347;48.780;9.158;2023-08-17T07:43:51;22.50;46.90
728;DHT22;347;48.780;9.158;2023-08-17T07:46:17;22.60;46.90
728;DHT22;347;48.780;9.158;2023-08-17T07:48:42;22.60;46.80
728;DHT22;347;48.780;9.158;2023-08-17T07:51:08;22.70;46.50
728;DHT22;347;48.780;9.158;2023-08-17T07:53:34;22.70;46.40
728;DHT22;347;48.780;9.158;2023-08-17T07:55:59;22.70;46.40
728;DHT22;347;48.780;9.158;2023-08-17T07:58:25;22.80;46.10
728;DHT22;347;48.780;9.158;2023-08-17T08:00:51;22.80;46.10
728;DHT22;347;48.780;9.158;2023-08-17T08:03:17;22.90;45.80
728;DHT22;347;48.780;9.158;2023-08-17T08:05:42;22.90;45.60
728;DHT22;347;48.780;9.158;2023-08-17T08:08:08;22.90;45.50
728;DHT22;347;48.780;9.158;2023-08-17T08:10:34;23.00;44.90
728;DHT22;347;48.780;9.158;2023-08-17T08:12:59;22.90;44.00
728;DHT22;347;48.780;9.158;2023-08-17T08:15:25;22.90;44.40
728;DHT22;347;48.780;9.158;2023-08-17T08:17:50;23.00;44.70
728;DHT22;347;48.780;9.158;2023-08-17T08:20:16;23.00;43.70
728;DHT22;347;48.780;9.158;2023-08-17T08:22:42;23.10;43.40
728;DHT22;347;48.780;9.158;2023-08-17T08:25:08;23.10;43.10
728;DHT22;347;48.780;9.158;2023-08-17T08:27:33;23.10;43.90
728;DHT22;347;48.780;9.158;2023-08-17T08:29:59;23.10;43.50
728;DHT22;347;48.780;9.158;2023-08-17T08:32:25;23.10;43.80
728;DHT22;347;48.780;9.158;2023-08-17T08:34:50;23.20;44.00
728;DHT22;347;48.780;9.158;2023-08-17T08:37:16;23.30;43.90
728;DHT22;347;48.780;9.158;2023-08-17T08:39:52;23.30;43.20
728;DHT22;347;48.780;9.158;2023-08-17T08:42:19;23.40;43.30
728;DHT22;347;48.780;9.158;2023-08-17T08:44:45;23.40;42.90
728;DHT22;347;48.780;9.158;2023-08-17T08:47:12;23.40;42.40
728;DHT22;347;48.780;9.158;2023-08-17T08:49:39;23.50;42.10
728;DHT22;347;48.780;9.158;2023-08-17T08:52:07;23.60;42.30
728;DHT22;347;48.780;9.158;2023-08-17T08:54:35;23.60;41.70
728;DHT22;347;48.780;9.158;2023-08-17T08:57:06;23.80;41.30
728;DHT22;347;48.780;9.158;2023-08-17T08:59:34;24.00;40.50
728;DHT22;347;48.780;9.158;2023-08-17T09:02:01;24.10;39.10
728;DHT22;347;48.780;9.158;2023-08-17T09:04:27;24.10;38.80
728;DHT22;347;48.780;9.158;2023-08-17T09:06:53;24.20;38.80
728;DHT22;347;48.780;9.158;2023-08-17T09:09:21;24.20;39.10
728;DHT22;347;48.780;9.158;2023-08-17T09:11:46;24.20;39.10
728;DHT22;347;48.780;9.158;2023-08-17T09:14:12;24.30;38.50
728;DHT22;347;48.780;9.158;2023-08-17T09:16:39;24.40;38.60
728;DHT22;347;48.780;9.158;2023-08-17T09:19:06;24.50;38.70
728;DHT22;347;48.780;9.158;2023-08-17T09:21:32;24.50;38.10
728;DHT22;347;48.780;9.158;2023-08-17T09:24:01;24.50;38.10
728;DHT22;347;48.780;9.158;2023-08-17T09:26:30;24.50;37.30
728;DHT22;347;48.780;9.158;2023-08-17T09:28:57;24.50;37.10
728;DHT22;347;48.780;9.158;2023-08-17T09:31:24;24.50;37.00
728;DHT22;347;48.780;9.158;2023-08-17T09:33:51;24.60;37.10
728;DHT22;347;48.780;9.158;2023-08-17T09:36:25;24.80;36.70
728;DHT22;347;48.780;9.158;2023-08-17T09:38:51;25.20;34.80
728;DHT22;347;48.780;9.158;2023-08-17T09:41:20;25.40;33.80
728;DHT22;347;48.780;9.158;2023-08-17T09:43:47;25.60;32.50
728;DHT22;347;48.780;9.158;2023-08-17T09:46:14;25.70;32.10
728;DHT22;347;48.780;9.158;2023-08-17T09:48:40;26.10;30.50
728;DHT22;347;48.780;9.158;2023-08-17T09:51:08;26.20;30.70
728;DHT22;347;48.780;9.158;2023-08-17T09:53:37;26.30;30.50
728;DHT22;347;48.780;9.158;2023-08-17T09:56:04;26.20;30.30
728;DHT22;347;48.780;9.158;2023-08-17T09:58:30;26.20;29.90
728;DHT22;347;48.780;9.158;2023-08-17T10:00:56;26.30;29.90
728;DHT22;347;48.780;9.158;2023-08-17T10:03:25;26.20;29.90
728;DHT22;347;48.780;9.158;2023-08-17T10:05:59;26.20;30.10
728;DHT22;347;48.780;9.158;2023-08-17T10:08:26;26.10;30.60
728;DHT22;347;48.780;9.158;2023-08-17T10:10:55;26.00;30.20
728;DHT22;347;48.780;9.158;2023-08-17T10:21:48;26.10;31.60
728;DHT22;347;48.780;9.158;2023-08-17T10:24:17;26.10;31.90
728;DHT22;347;48.780;9.158;2023-08-17T10:26:43;26.10;31.80
728;DHT22;347;48.780;9.158;2023-08-17T10:29:10;26.30;31.60
728;DHT22;347;48.780;9.158;2023-08-17T10:31:38;26.40;29.50
728;DHT22;347;48.780;9.158;2023-08-17T10:34:04;26.50;29.30
728;DHT22;347;48.780;9.158;2023-08-17T10:36:31;26.60;30.00
728;DHT22;347;48.780;9.158;2023-08-17T10:39:23;26.60;29.80
728;DHT22;347;48.780;9.158;2023-08-17T10:41:50;26.70;29.30
728;DHT22;347;48.780;9.158;2023-08-17T10:44:18;26.70;28.90
728;DHT22;347;48.780;9.158;2023-08-17T10:47:25;26.80;28.80
728;DHT22;347;48.780;9.158;2023-08-17T10:49:56;26.80;28.70
728;DHT22;347;48.780;9.158;2023-08-17T10:54:55;26.90;28.20
728;DHT22;347;48.780;9.158;2023-08-17T10:57:29;26.90;28.30
728;DHT22;347;48.780;9.158;2023-08-17T11:00:25;26.90;27.60
728;DHT22;347;48.780;9.158;2023-08-17T11:03:03;26.90;27.40
728;DHT22;347;48.780;9.158;2023-08-17T11:05:42;27.00;27.00
728;DHT22;347;48.780;9.158;2023-08-17T11:08:12;27.10;26.60
728;DHT22;347;48.780;9.158;2023-08-17T11:13:53;27.30;26.20
728;DHT22;347;48.780;9.158;2023-08-17T11:16:19;27.30;26.90
728;DHT22;347;48.780;9.158;2023-08-17T11:18:48;27.20;26.90
728;DHT22;347;48.780;9.158;2023-08-17T11:21:15;27.20;26.60
728;DHT22;347;48.780;9.158;2023-08-17T11:23:41;27.10;26.40
728;DHT22;347;48.780;9.158;2023-08-17T11:26:07;27.10;26.10
728;DHT22;347;48.780;9.158;2023-08-17T11:28:34;27.00;26.70
728;DHT22;347;48.780;9.158;2023-08-17T11:31:05;27.00;27.10
728;DHT22;347;48.780;9.158;2023-08-17T11:33:32;26.90;27.30
728;DHT22;347;48.780;9.158;2023-08-17T11:36:00;26.90;27.80
728;DHT22;347;48.780;9.158;2023-08-17T11:38:29;26.90;28.00
728;DHT22;347;48.780;9.158;2023-08-17T11:40:58;26.90;27.70
728;DHT22;347;48.780;9.158;2023-08-17T11:43:24;26.80;27.40
728;DHT22;347;48.780;9.158;2023-08-17T11:45:49;26.90;26.70
728;DHT22;347;48.780;9.158;2023-08-17T11:48:15;26.90;27.00
728;DHT22;347;48.780;9.158;2023-08-17T11:50:42;26.90;27.00
728;DHT22;347;48.780;9.158;2023-08-17T11:53:08;26.90;27.20
728;DHT22;347;48.780;9.158;2023-08-17T11:55:34;26.90;27.30
728;DHT22;347;48.780;9.158;2023-08-17T11:58:00;26.90;27.30
728;DHT22;347;48.780;9.158;2023-08-17T12:00:26;26.80;27.30
728;DHT22;347;48.780;9.158;2023-08-17T12:02:54;26.90;27.20
728;DHT22;347;48.780;9.158;2023-08-17T12:05:24;26.80;27.40
728;DHT22;347;48.780;9.158;2023-08-17T12:07:52;26.80;27.30
728;DHT22;347;48.780;9.158;2023-08-17T12:10:18;26.80;27.30
728;DHT22;347;48.780;9.158;2023-08-17T12:12:46;26.70;27.70
728;DHT22;347;48.780;9.158;2023-08-17T12:15:13;26.80;28.20
728;DHT22;347;48.780;9.158;2023-08-17T12:17:46;26.80;28.40
728;DHT22;347;48.780;9.158;2023-08-17T12:20:17;26.80;28.70
728;DHT22;347;48.780;9.158;2023-08-17T12:22:43;26.80;29.20
728;DHT22;347;48.780;9.158;2023-08-17T12:25:09;26.80;29.20
728;DHT22;347;48.780;9.158;2023-08-17T12:27:35;26.80;30.00
728;DHT22;347;48.780;9.158;2023-08-17T12:30:01;26.70;30.50
728;DHT22;347;48.780;9.158;2023-08-17T12:32:26;26.70;31.20
728;DHT22;347;48.780;9.158;2023-08-17T12:34:52;26.70;31.50
728;DHT22;347;48.780;9.158;2023-08-17T12:37:19;26.80;32.10
728;DHT22;347;48.780;9.158;2023-08-17T12:39:46;26.70;31.90
728;DHT22;347;48.780;9.158;2023-08-17T12:42:12;26.70;32.30
728;DHT22;347;48.780;9.158;2023-08-17T12:44:39;26.70;32.70
728;DHT22;347;48.780;9.158;2023-08-17T12:47:05;26.70;32.60
728;DHT22;347;48.780;9.158;2023-08-17T12:49:30;26.60;33.00
728;DHT22;347;48.780;9.158;2023-08-17T12:51:56;26.60;33.50
728;DHT22;347;48.780;9.158;2023-08-17T12:54:21;26.60;33.50
728;DHT22;347;48.780;9.158;2023-08-17T12:56:47;26.60;33.80
728;DHT22;347;48.780;9.158;2023-08-17T12:59:13;26.60;34.10
728;DHT22;347;48.780;9.158;2023-08-17T13:01:39;26.50;34.10
728;DHT22;347;48.780;9.158;2023-08-17T13:04:05;26.50;34.00
728;DHT22;347;48.780;9.158;2023-08-17T13:06:31;26.40;34.70
728;DHT22;347;48.780;9.158;2023-08-17T13:08:57;26.40;35.20
728;DHT22;347;48.780;9.158;2023-08-17T13:11:22;26.30;36.00
728;DHT22;347;48.780;9.158;2023-08-17T13:13:48;26.20;36.10
728;DHT22;347;48.780;9.158;2023-08-17T13:16:14;26.20;36.30
728;DHT22;347;48.780;9.158;2023-08-17T13:18:39;26.10;36.70
728;DHT22;347;48.780;9.158;2023-08-17T13:21:05;26.00;37.40
728;DHT22;347;48.780;9.158;2023-08-17T13:23:31;26.00;38.40
728;DHT22;347;48.780;9.158;2023-08-17T13:25:56;25.90;38.50
728;DHT22;347;48.780;9.158;2023-08-17T13:28:22;25.80;38.80
728;DHT22;347;48.780;9.158;2023-08-17T13:30:48;25.70;39.50
728;DHT22;347;48.780;9.158;2023-08-17T13:33:13;25.60;42.30
728;DHT22;347;48.780;9.158;2023-08-17T13:35:41;25.50;41.40
728;DHT22;347;48.780;9.158;2023-08-17T13:38:07;25.40;42.20
728;DHT22;347;48.780;9.158;2023-08-17T13:40:33;25.40;42.90
728;DHT22;347;48.780;9.158;2023-08-17T13:42:59;25.20;43.40
728;DHT22;347;48.780;9.158;2023-08-17T13:45:25;25.10;44.20
728;DHT22;347;48.780;9.158;2023-08-17T13:47:51;25.00;44.70
728;DHT22;347;48.780;9.158;2023-08-17T13:50:17;24.90;44.60
728;DHT22;347;48.780;9.158;2023-08-17T13:52:44;24.80;45.10
728;DHT22;347;48.780;9.158;2023-08-17T13:55:09;24.70;45.60
728;DHT22;347;48.780;9.158;2023-08-17T13:57:35;24.60;46.20
728;DHT22;347;48.780;9.158;2023-08-17T14:00:01;24.60;46.50
728;DHT22;347;48.780;9.158;2023-08-17T14:02:27;24.50;47.00
728;DHT22;347;48.780;9.158;2023-08-17T14:04:52;24.50;47.40
728;DHT22;347;48.780;9.158;2023-08-17T14:07:18;24.40;47.80
728;DHT22;347;48.780;9.158;2023-08-17T14:09:43;24.40;49.00
728;DHT22;347;48.780;9.158;2023-08-17T14:12:09;24.20;49.20
728;DHT22;347;48.780;9.158;2023-08-17T14:14:35;24.20;49.50
728;DHT22;347;48.780;9.158;2023-08-17T14:17:00;24.20;49.70
728;DHT22;347;48.780;9.158;2023-08-17T14:19:28;24.20;49.20
728;DHT22;347;48.780;9.158;2023-08-17T14:21:53;24.20;48.70
728;DHT22;347;48.780;9.158;2023-08-17T14:24:19;24.20;48.50
728;DHT22;347;48.780;9.158;2023-08-17T14:26:45;24.20;49.10
728;DHT22;347;48.780;9.158;2023-08-17T14:29:10;24.10;47.90
728;DHT22;347;48.780;9.158;2023-08-17T14:31:36;24.20;47.60
728;DHT22;347;48.780;9.158;2023-08-17T14:34:01;24.10;47.50
728;DHT22;347;48.780;9.158;2023-08-17T14:36:27;24.20;47.80
728;DHT22;347;48.780;9.158;2023-08-17T14:38:53;24.20;47.70
728;DHT22;347;48.780;9.158;2023-08-17T14:41:18;24.20;48.10
728;DHT22;347;48.780;9.158;2023-08-17T14:43:44;24.20;48.20
728;DHT22;347;48.780;9.158;2023-08-17T14:46:10;24.20;47.50
728;DHT22;347;48.780;9.158;2023-08-17T14:48:35;24.20;47.10
728;DHT22;347;48.780;9.158;2023-08-17T14:51:01;24.30;46.40
728;DHT22;347;48.780;9.158;2023-08-17T14:53:27;24.20;46.00
728;DHT22;347;48.780;9.158;2023-08-17T14:55:53;24.20;46.10
728;DHT22;347;48.780;9.158;2023-08-17T14:58:18;24.20;46.20
728;DHT22;347;48.780;9.158;2023-08-17T15:00:44;24.30;46.30
728;DHT22;347;48.780;9.158;2023-08-17T15:03:09;24.30;46.20
728;DHT22;347;48.780;9.158;2023-08-17T15:05:35;24.30;46.10
728;DHT22;347;48.780;9.158;2023-08-17T15:08:03;24.30;46.40
728;DHT22;347;48.780;9.158;2023-08-17T15:10:29;24.30;46.30
728;DHT22;347;48.780;9.158;2023-08-17T15:12:55;24.30;45.50
728;DHT22;347;48.780;9.158;2023-08-17T15:15:20;24.30;45.30
728;DHT22;347;48.780;9.158;2023-08-17T15:17:46;24.30;45.20
728;DHT22;347;48.780;9.158;2023-08-17T15:20:12;24.30;45.30
728;DHT22;347;48.780;9.158;2023-08-17T15:22:37;24.40;44.90
728;DHT22;347;48.780;9.158;2023-08-17T15:25:04;24.40;44.20
728;DHT22;347;48.780;9.158;2023-08-17T15:27:29;24.40;44.20
728;DHT22;347;48.780;9.158;2023-08-17T15:29:55;24.40;44.20
728;DHT22;347;48.780;9.158;2023-08-17T15:32:20;24.50;44.30
728;DHT22;347;48.780;9.158;2023-08-17T15:34:46;24.50;44.30
728;DHT22;347;48.780;9.158;2023-08-17T15:37:12;24.50;44.20
728;DHT22;347;48.780;9.158;2023-08-17T15:39:37;24.50;44.20
728;DHT22;347;48.780;9.158;2023-08-17T15:42:03;24.50;43.70
728;DHT22;347;48.780;9.158;2023-08-17T15:44:29;24.50;43.20
728;DHT22;347;48.780;9.158;2023-08-17T15:46:56;24.50;42.80
728;DHT22;347;48.780;9.158;2023-08-17T15:49:24;24.60;42.50
728;DHT22;347;48.780;9.158;2023-08-17T15:51:49;24.60;42.30
728;DHT22;347;48.780;9.158;2023-08-17T15:54:15;24.60;42.50
728;DHT22;347;48.780;9.158;2023-08-17T15:56:40;24.70;42.40
728;DHT22;347;48.780;9.158;2023-08-17T15:59:06;24.70;42.00
728;DHT22;347;48.780;9.158;2023-08-17T16:01:32;24.60;41.90
728;DHT22;347;48.780;9.158;2023-08-17T16:03:57;24.70;42.30
728;DHT22;347;48.780;9.158;2023-08-17T16:06:23;24.80;41.90
728;DHT22;347;48.780;9.158;2023-08-17T16:08:49;24.80;41.70
728;DHT22;347;48.780;9.158;2023-08-17T16:11:14;24.80;41.70
728;DHT22;347;48.780;9.158;2023-08-17T16:13:40;24.80;42.40
728;DHT22;347;48.780;9.158;2023-08-17T16:16:06;24.90;43.20
728;DHT22;347;48.780;9.158;2023-08-17T16:18:32;24.90;43.40
728;DHT22;347;48.780;9.158;2023-08-17T16:20:57;24.90;43.60
728;DHT22;347;48.780;9.158;2023-08-17T16:23:23;24.90;43.90
728;DHT22;347;48.780;9.158;2023-08-17T16:25:49;24.90;43.60
728;DHT22;347;48.780;9.158;2023-08-17T16:28:14;25.00;42.50
728;DHT22;347;48.780;9.158;2023-08-17T16:30:40;25.00;42.10
728;DHT22;347;48.780;9.158;2023-08-17T16:33:06;25.00;42.30
728;DHT22;347;48.780;9.158;2023-08-17T16:35:33;25.10;41.70
728;DHT22;347;48.780;9.158;2023-08-17T16:38:01;25.10;41.80
728;DHT22;347;48.780;9.158;2023-08-17T16:40:26;25.10;42.20
728;DHT22;347;48.780;9.158;2023-08-17T16:42:52;25.00;42.30
728;DHT22;347;48.780;9.158;2023-08-17T16:45:17;25.00;42.60